createdAt,value
2018-07-06T00:02:05.584Z,20.80
2018-07-06T00:04:45.440Z,20.70
2018-07-06T00:07:24.977Z,20.70
2018-07-06T00:10:04.617Z,20.70
2018-07-06T00:12:44.295Z,20.60
2018-07-06T00:15:23.846Z,20.60
2018-07-06T00:18:03.317Z,20.60
2018-07-06T00:20:42.968Z,20.60
2018-07-06T00:25:56.451Z,20.40
2018-07-06T00:28:36.179Z,20.40
2018-07-06T00:31:15.894Z,20.40
2018-07-06T00:36:29.182Z,20.30
2018-07-06T00:39:08.626Z,20.30
2018-07-06T00:41:48.272Z,20.30
2018-07-06T00:44:27.940Z,20.30
2018-07-06T00:47:07.647Z,20.20
2018-07-06T00:49:47.386Z,20.20
2018-07-06T00:52:27.056Z,20.10
2018-07-06T00:55:06.627Z,20.20
2018-07-06T00:57:50.483Z,20.10
2018-07-06T01:03:04.025Z,20.10
2018-07-06T01:05:43.575Z,20.10
2018-07-06T01:10:56.947Z,19.90
2018-07-06T01:13:36.604Z,19.90
2018-07-06T01:16:16.404Z,19.90
2018-07-06T01:21:29.824Z,19.80
2018-07-06T01:24:09.567Z,19.80
2018-07-06T01:26:49.269Z,19.80
2018-07-06T01:29:28.819Z,19.80
2018-07-06T01:32:08.557Z,19.70
2018-07-06T01:34:48.238Z,19.60
2018-07-06T01:37:27.818Z,19.70
2018-07-06T01:40:07.589Z,19.60
2018-07-06T01:42:47.262Z,19.50
2018-07-06T01:45:26.993Z,19.60
2018-07-06T01:48:06.591Z,19.50
2018-07-06T01:53:19.943Z,19.40
2018-07-06T01:55:59.613Z,19.40
2018-07-06T01:58:39.219Z,19.40
2018-07-06T02:03:52.837Z,19.30
2018-07-06T02:06:32.303Z,19.20
2018-07-06T02:11:45.683Z,19.20
2018-07-06T02:14:25.438Z,19.20
2018-07-06T02:17:05.161Z,19.20
2018-07-06T02:19:44.786Z,19.10
2018-07-06T02:24:58.605Z,19.10
2018-07-06T02:27:38.274Z,19.10
2018-07-06T02:30:17.904Z,19.10
2018-07-06T02:32:57.585Z,19.10
2018-07-06T02:35:37.660Z,19.00
2018-07-06T02:38:17.434Z,19.00
2018-07-06T02:40:57.248Z,18.80
2018-07-06T02:43:37.010Z,18.60
2018-07-06T02:46:16.672Z,18.70
2018-07-06T02:48:56.395Z,18.60
2018-07-06T02:51:36.018Z,18.60
2018-07-06T02:54:15.503Z,18.60
2018-07-06T02:56:55.090Z,18.60
2018-07-06T02:59:34.687Z,18.50
2018-07-06T03:02:14.341Z,18.50
2018-07-06T03:04:53.908Z,18.50
2018-07-06T03:10:07.081Z,18.40
2018-07-06T03:12:46.819Z,18.30
2018-07-06T03:15:26.404Z,18.20
2018-07-06T03:18:06.203Z,18.20
2018-07-06T03:20:45.786Z,18.10
2018-07-06T03:23:25.595Z,18.10
2018-07-06T03:26:05.271Z,18.10
2018-07-06T03:28:45.311Z,18.10
2018-07-06T03:31:24.553Z,18.20
2018-07-06T03:34:04.362Z,18.10
2018-07-06T03:36:43.859Z,18.10
2018-07-06T03:39:23.490Z,18.10
2018-07-06T03:42:03.068Z,18.20
2018-07-06T03:44:42.815Z,18.20
2018-07-06T03:47:22.272Z,18.20
2018-07-06T03:50:01.929Z,18.20
2018-07-06T03:52:41.567Z,18.20
2018-07-06T03:55:21.612Z,18.30
2018-07-06T03:58:02.887Z,18.30
2018-07-06T04:00:42.583Z,18.20
2018-07-06T04:03:22.344Z,18.30
2018-07-06T04:06:02.240Z,18.30
2018-07-06T04:08:41.962Z,18.40
2018-07-06T04:11:21.806Z,18.40
2018-07-06T04:14:01.462Z,18.50
2018-07-06T04:16:41.116Z,18.50
2018-07-06T04:19:20.840Z,18.50
2018-07-06T04:22:00.501Z,18.60
2018-07-06T04:24:39.958Z,18.50
2018-07-06T04:27:19.676Z,18.50
2018-07-06T04:29:59.213Z,18.60
2018-07-06T04:32:38.815Z,18.60
2018-07-06T04:35:18.506Z,18.70
2018-07-06T04:37:58.179Z,18.50
2018-07-06T04:40:37.911Z,18.50
2018-07-06T04:43:17.559Z,18.50
2018-07-06T04:45:57.282Z,18.50
2018-07-06T04:48:36.983Z,18.60
2018-07-06T04:53:50.314Z,18.60
2018-07-06T04:56:30.034Z,18.70
2018-07-06T04:59:09.852Z,18.80
2018-07-06T05:01:49.554Z,18.80
2018-07-06T05:04:29.095Z,18.80
2018-07-06T05:07:08.883Z,18.90
2018-07-06T05:09:48.638Z,18.80
2018-07-06T05:12:28.356Z,18.70
2018-07-06T05:15:08.043Z,18.70
2018-07-06T05:17:47.735Z,18.60
2018-07-06T05:23:01.233Z,18.60
2018-07-06T05:25:40.977Z,18.70
2018-07-06T05:28:20.724Z,18.80
2018-07-06T05:31:00.395Z,18.90
2018-07-06T05:33:40.080Z,19.00
2018-07-06T05:36:19.764Z,18.90
2018-07-06T05:38:59.234Z,18.90
2018-07-06T05:41:38.580Z,19.00
2018-07-06T05:44:18.337Z,19.00
2018-07-06T05:46:58.028Z,18.90
2018-07-06T05:49:37.606Z,18.90
2018-07-06T05:54:50.696Z,19.00
2018-07-06T05:57:30.289Z,19.20
2018-07-06T06:00:10.070Z,19.30
2018-07-06T06:02:49.568Z,19.40
2018-07-06T06:07:50.528Z,19.40
2018-07-06T06:12:46.819Z,19.40
2018-07-06T06:15:15.098Z,19.40
2018-07-06T06:17:43.382Z,19.50
2018-07-06T06:20:14.774Z,19.50
2018-07-06T06:25:11.380Z,20.00
2018-07-06T06:27:39.721Z,20.30
2018-07-06T06:30:08.029Z,20.30
2018-07-06T06:32:36.651Z,20.20
2018-07-06T06:35:04.948Z,20.20
2018-07-06T06:37:33.298Z,20.20
2018-07-06T06:40:01.711Z,20.40
2018-07-06T06:42:30.039Z,20.30
2018-07-06T06:44:58.315Z,20.00
2018-07-06T06:47:26.693Z,19.90
2018-07-06T06:49:55.014Z,19.80
2018-07-06T06:54:51.346Z,20.10
2018-07-06T06:57:19.684Z,20.10
2018-07-06T06:59:50.020Z,20.00
2018-07-06T07:02:18.352Z,20.00
2018-07-06T07:04:46.677Z,20.00
2018-07-06T07:07:15.139Z,19.80
2018-07-06T07:09:43.462Z,19.70
2018-07-06T07:12:11.748Z,19.80
2018-07-06T07:14:40.149Z,19.80
2018-07-06T07:17:08.520Z,20.10
2018-07-06T07:19:36.929Z,20.00
2018-07-06T07:22:05.188Z,20.20
2018-07-06T07:24:33.614Z,20.40
2018-07-06T07:27:01.978Z,20.40
2018-07-06T07:29:30.479Z,20.50
2018-07-06T07:31:58.927Z,20.70
2018-07-06T07:34:27.552Z,21.00
2018-07-06T07:39:23.969Z,21.00
2018-07-06T07:41:52.602Z,21.50
2018-07-06T07:44:21.130Z,21.80
2018-07-06T07:46:49.448Z,21.90
2018-07-06T07:49:17.722Z,22.50
2018-07-06T07:54:33.012Z,23.00
2018-07-06T07:57:02.296Z,22.70
2018-07-06T07:59:32.227Z,22.70
2018-07-06T08:02:01.361Z,22.40
2018-07-06T08:04:29.666Z,22.30
2018-07-06T08:06:58.249Z,23.80
2018-07-06T08:09:27.331Z,24.70
2018-07-06T08:11:57.136Z,25.20
2018-07-06T08:14:25.549Z,25.90
2018-07-06T08:16:53.896Z,25.00
2018-07-06T08:19:22.459Z,23.70
2018-07-06T08:21:51.066Z,24.20
2018-07-06T08:24:19.975Z,25.80
2018-07-06T08:26:48.529Z,26.50
2018-07-06T08:29:16.906Z,26.50
2018-07-06T08:31:45.466Z,26.20
2018-07-06T08:34:25.194Z,25.30
2018-07-06T08:37:37.368Z,24.50
2018-07-06T08:40:05.694Z,24.90
2018-07-06T08:42:36.022Z,24.90
2018-07-06T08:45:04.773Z,23.90
2018-07-06T08:47:33.105Z,23.70
2018-07-06T08:50:02.198Z,24.60
2018-07-06T08:52:30.807Z,25.70
2018-07-06T08:54:59.197Z,26.20
2018-07-06T08:57:28.882Z,26.70
2018-07-06T08:59:57.645Z,27.70
2018-07-06T09:02:26.248Z,27.80
2018-07-06T09:04:55.350Z,26.90
2018-07-06T09:07:24.014Z,26.50
2018-07-06T09:09:52.797Z,25.40
2018-07-06T09:12:21.180Z,24.40
2018-07-06T09:14:49.508Z,24.30
2018-07-06T09:17:18.895Z,25.60
2018-07-06T09:19:47.670Z,25.40
2018-07-06T09:22:16.465Z,25.50
2018-07-06T09:24:45.567Z,25.60
2018-07-06T09:27:14.032Z,26.00
2018-07-06T09:29:42.415Z,24.60
2018-07-06T09:32:10.803Z,24.00
2018-07-06T09:34:39.486Z,24.40
2018-07-06T09:37:07.977Z,24.90
2018-07-06T09:39:36.664Z,25.30
2018-07-06T09:42:04.975Z,25.70
2018-07-06T09:44:33.521Z,25.70
2018-07-06T09:47:01.820Z,26.60
2018-07-06T09:49:30.095Z,27.10
2018-07-06T09:51:58.458Z,27.40
2018-07-06T09:54:26.752Z,27.70
2018-07-06T09:56:55.102Z,28.50
2018-07-06T09:59:23.443Z,28.00
2018-07-06T10:01:51.864Z,27.90
2018-07-06T10:04:20.194Z,28.10
2018-07-06T10:06:48.533Z,29.30
2018-07-06T10:09:16.824Z,28.20
2018-07-06T10:11:45.099Z,27.00
2018-07-06T10:14:13.424Z,27.20
2018-07-06T10:16:41.766Z,27.50
2018-07-06T10:21:38.101Z,29.50
2018-07-06T10:24:06.497Z,30.40
2018-07-06T10:26:34.959Z,30.30
2018-07-06T10:30:19.372Z,29.90
2018-07-06T10:32:47.808Z,31.20
2018-07-06T10:35:16.116Z,32.20
2018-07-06T10:37:44.423Z,31.40
2018-07-06T10:40:12.780Z,31.90
2018-07-06T10:42:41.151Z,33.70
2018-07-06T10:45:09.519Z,34.70
2018-07-06T10:47:37.787Z,33.80
2018-07-06T10:50:06.125Z,33.40
2018-07-06T10:52:34.446Z,31.90
2018-07-06T10:55:02.787Z,32.20
2018-07-06T10:57:31.086Z,31.30
2018-07-06T10:59:59.423Z,33.30
2018-07-06T11:02:27.746Z,33.80
2018-07-06T11:04:56.363Z,34.30
2018-07-06T11:07:24.723Z,33.90
2018-07-06T11:09:53.091Z,35.80
2018-07-06T11:12:21.383Z,35.30
2018-07-06T11:14:49.680Z,33.20
2018-07-06T11:17:17.993Z,33.80
2018-07-06T11:19:46.243Z,34.20
2018-07-06T11:22:14.503Z,34.80
2018-07-06T11:24:42.851Z,34.30
2018-07-06T11:27:11.121Z,35.30
2018-07-06T11:29:39.967Z,36.40
2018-07-06T11:32:08.552Z,35.80
2018-07-06T11:34:36.847Z,35.30
2018-07-06T11:37:05.199Z,35.00
2018-07-06T11:39:34.490Z,35.90
2018-07-06T11:42:02.742Z,35.30
2018-07-06T11:44:31.099Z,35.90
2018-07-06T11:46:59.387Z,37.40
2018-07-06T11:49:27.759Z,35.40
2018-07-06T11:51:56.046Z,34.90
2018-07-06T11:54:24.390Z,34.60
2018-07-06T11:56:52.699Z,35.10
2018-07-06T11:59:20.970Z,36.00
2018-07-06T12:01:49.424Z,37.30
2018-07-06T12:04:17.803Z,37.00
2018-07-06T12:06:46.153Z,37.80
2018-07-06T12:09:15.106Z,38.40
2018-07-06T12:11:43.509Z,38.80
2018-07-06T12:14:11.934Z,39.30
2018-07-06T12:16:40.266Z,38.80
2018-07-06T12:19:08.576Z,36.40
2018-07-06T12:21:36.870Z,36.40
2018-07-06T12:26:33.306Z,36.00
2018-07-06T12:29:01.737Z,36.40
2018-07-06T12:31:30.409Z,35.40
2018-07-06T12:33:58.739Z,34.60
2018-07-06T12:36:27.068Z,33.10
2018-07-06T12:38:55.406Z,33.20
2018-07-06T12:43:51.779Z,34.60
2018-07-06T12:46:20.058Z,35.20
2018-07-06T12:48:48.509Z,34.40
2018-07-06T12:51:17.103Z,34.30
2018-07-06T12:53:45.476Z,34.80
2018-07-06T12:56:13.754Z,33.60
2018-07-06T12:58:42.076Z,33.70
2018-07-06T13:03:38.389Z,32.50
2018-07-06T13:06:06.732Z,32.30
2018-07-06T13:08:36.167Z,31.60
2018-07-06T13:11:04.440Z,31.80
2018-07-06T13:16:00.732Z,32.10
2018-07-06T13:18:29.073Z,31.60
2018-07-06T13:23:26.373Z,30.00
2018-07-06T13:25:54.814Z,29.80
2018-07-06T13:28:23.045Z,30.30
2018-07-06T13:30:51.337Z,31.00
2018-07-06T13:33:26.556Z,31.20
2018-07-06T13:35:54.832Z,30.60
2018-07-06T13:38:23.086Z,31.10
2018-07-06T13:40:51.409Z,31.10
2018-07-06T13:43:19.650Z,31.50
2018-07-06T13:45:47.940Z,31.50
2018-07-06T13:48:16.269Z,31.30
2018-07-06T13:53:12.863Z,31.60
2018-07-06T13:55:41.185Z,30.30
2018-07-06T13:58:09.520Z,30.00
2018-07-06T14:00:37.892Z,30.10
2018-07-06T14:03:06.250Z,30.50
2018-07-06T14:05:35.800Z,30.60
2018-07-06T14:08:04.093Z,30.80
2018-07-06T14:10:32.408Z,30.80
2018-07-06T14:13:00.797Z,30.70
2018-07-06T14:15:29.033Z,31.10
2018-07-06T14:20:25.436Z,30.80
2018-07-06T14:22:53.954Z,30.80
2018-07-06T14:25:22.208Z,31.00
2018-07-06T14:27:50.525Z,31.00
2018-07-06T14:30:18.811Z,30.40
2018-07-06T14:32:47.091Z,30.60
2018-07-06T14:35:15.388Z,30.50
2018-07-06T14:37:43.701Z,30.60
2018-07-06T14:40:11.995Z,30.30
2018-07-06T14:42:40.218Z,30.20
2018-07-06T14:45:08.504Z,29.70
2018-07-06T14:47:36.876Z,29.80
2018-07-06T14:50:05.173Z,29.90
2018-07-06T14:52:33.454Z,30.20
2018-07-06T14:55:01.705Z,30.20
2018-07-06T14:57:29.958Z,30.20
2018-07-06T14:59:58.285Z,30.30
2018-07-06T15:02:26.515Z,29.80
2018-07-06T15:04:54.873Z,29.40
2018-07-06T15:07:23.116Z,29.10
2018-07-06T15:09:51.356Z,28.80
2018-07-06T15:12:19.645Z,28.40
2018-07-06T15:14:47.940Z,28.20
2018-07-06T15:17:16.202Z,27.70
2018-07-06T15:19:44.528Z,27.10
2018-07-06T15:24:41.392Z,27.10
2018-07-06T15:29:37.652Z,27.10
2018-07-06T15:32:06.126Z,27.10
2018-07-06T15:34:34.420Z,27.10
2018-07-06T15:37:02.775Z,27.10
2018-07-06T15:39:31.088Z,27.10
2018-07-06T15:41:59.323Z,27.10
2018-07-06T15:46:55.658Z,27.10
2018-07-06T15:51:51.964Z,26.80
2018-07-06T15:54:20.215Z,26.70
2018-07-06T15:56:48.464Z,26.70
2018-07-06T15:59:16.790Z,26.60
2018-07-06T16:01:45.075Z,27.00
2018-07-06T16:04:13.392Z,27.20
2018-07-06T16:06:41.635Z,27.20
2018-07-06T16:09:09.885Z,27.50
2018-07-06T16:11:38.184Z,27.80
2018-07-06T16:14:06.537Z,28.00
2018-07-06T16:16:34.880Z,28.10
2018-07-06T16:21:31.217Z,28.40
2018-07-06T16:23:59.954Z,28.70
2018-07-06T16:26:28.434Z,28.60
2018-07-06T16:28:56.697Z,28.70
2018-07-06T16:31:25.037Z,28.70
2018-07-06T16:36:21.419Z,28.40
2018-07-06T16:38:49.640Z,28.60
2018-07-06T16:41:17.930Z,28.60
2018-07-06T16:43:46.198Z,28.80
2018-07-06T16:46:14.469Z,28.70
2018-07-06T16:48:42.730Z,28.90
2018-07-06T16:51:11.069Z,29.00
2018-07-06T16:53:39.393Z,28.80
2018-07-06T16:56:07.642Z,28.90
2018-07-06T16:58:35.964Z,28.90
2018-07-06T17:01:04.287Z,29.00
2018-07-06T17:03:32.552Z,28.60
2018-07-06T17:06:00.899Z,28.50
2018-07-06T17:08:29.192Z,28.30
2018-07-06T17:13:25.416Z,28.30
2018-07-06T17:15:53.737Z,28.20
2018-07-06T17:18:22.111Z,28.10
2018-07-06T17:20:50.399Z,28.10
2018-07-06T17:23:18.701Z,27.80
2018-07-06T17:25:46.998Z,27.70
2018-07-06T17:28:15.323Z,27.80
2018-07-06T17:30:43.608Z,27.90
2018-07-06T17:33:11.935Z,28.00
2018-07-06T17:35:40.227Z,27.90
2018-07-06T17:40:36.462Z,27.70
2018-07-06T17:43:04.791Z,27.60
2018-07-06T17:45:33.082Z,27.60
2018-07-06T17:48:01.415Z,27.30
2018-07-06T17:50:29.783Z,27.40
2018-07-06T17:52:58.037Z,27.30
2018-07-06T17:55:26.293Z,27.10
2018-07-06T17:57:54.588Z,27.10
2018-07-06T18:00:22.862Z,26.90
2018-07-06T18:02:51.152Z,26.80
2018-07-06T18:05:19.430Z,26.70
2018-07-06T18:07:47.775Z,26.80
2018-07-06T18:10:16.093Z,26.70
2018-07-06T18:15:13.585Z,26.60
2018-07-06T18:17:42.550Z,26.60
2018-07-06T18:20:10.830Z,26.60
2018-07-06T18:22:39.104Z,26.70
2018-07-06T18:27:35.380Z,26.80
2018-07-06T18:30:03.716Z,26.70
2018-07-06T18:32:32.230Z,26.60
2018-07-06T18:35:00.560Z,26.80
2018-07-06T18:37:28.875Z,26.70
2018-07-06T18:39:57.110Z,26.60
2018-07-06T18:42:25.371Z,26.60
2018-07-06T18:44:53.666Z,26.70
2018-07-06T18:47:21.889Z,26.70
2018-07-06T18:49:50.178Z,26.60
2018-07-06T18:52:18.523Z,26.70
2018-07-06T18:54:46.904Z,26.60
2018-07-06T18:57:15.086Z,26.50
2018-07-06T18:59:43.376Z,26.60
2018-07-06T19:02:11.671Z,26.60
2018-07-06T19:04:39.965Z,26.70
2018-07-06T19:07:08.245Z,26.70
2018-07-06T19:09:36.792Z,26.50
2018-07-06T19:12:05.088Z,26.40
2018-07-06T19:14:33.443Z,26.40
2018-07-06T19:19:30.544Z,26.20
2018-07-06T19:21:58.883Z,26.20
2018-07-06T19:24:27.216Z,26.30
2018-07-06T19:26:55.476Z,26.20
2018-07-06T19:29:23.743Z,26.10
2018-07-06T19:31:53.039Z,26.00
2018-07-06T19:34:21.311Z,26.00
2018-07-06T19:36:49.618Z,25.90
2018-07-06T19:39:17.941Z,25.90
2018-07-06T19:41:46.206Z,25.90
2018-07-06T19:46:42.597Z,25.70
2018-07-06T19:49:10.921Z,25.60
2018-07-06T19:51:39.291Z,25.50
2018-07-06T19:59:03.788Z,25.40
2018-07-06T20:01:32.164Z,25.40
2018-07-06T20:04:00.465Z,25.40
2018-07-06T20:06:28.763Z,25.40
2018-07-06T20:08:57.029Z,25.40
2018-07-06T20:13:53.324Z,25.40
2018-07-06T20:16:21.607Z,25.40
2018-07-06T20:18:49.927Z,25.40
2018-07-06T20:23:46.474Z,25.30
2018-07-06T20:26:14.789Z,25.20
2018-07-06T20:28:43.805Z,25.20
2018-07-06T20:31:12.137Z,25.10
2018-07-06T20:33:40.432Z,25.00
2018-07-06T20:36:08.782Z,25.00
2018-07-06T20:38:37.039Z,24.90
2018-07-06T20:41:05.379Z,24.80
2018-07-06T20:43:33.675Z,24.80
2018-07-06T20:46:01.956Z,24.80
2018-07-06T20:48:30.400Z,24.80
2018-07-06T20:50:58.884Z,24.80
2018-07-06T20:53:27.532Z,24.80
2018-07-06T20:55:55.860Z,24.80
2018-07-06T20:58:24.138Z,24.90
2018-07-06T21:00:52.433Z,24.80
2018-07-06T21:03:20.710Z,24.80
2018-07-06T21:05:49.047Z,24.80
2018-07-06T21:08:17.308Z,24.70
2018-07-06T21:10:46.204Z,24.70
2018-07-06T21:13:14.584Z,24.70
2018-07-06T21:15:45.060Z,24.70
2018-07-06T21:18:14.697Z,24.60
2018-07-06T21:20:43.255Z,24.60
2018-07-06T21:23:11.848Z,24.40
2018-07-06T21:25:40.768Z,24.40
2018-07-06T21:28:09.221Z,24.20
2018-07-06T21:30:37.857Z,24.20
2018-07-06T21:33:06.401Z,24.10
2018-07-06T21:35:34.830Z,24.10
2018-07-06T21:38:03.289Z,24.00
2018-07-06T21:40:31.785Z,23.80
2018-07-06T21:43:00.197Z,23.80
2018-07-06T21:45:28.791Z,23.70
2018-07-06T21:47:57.186Z,23.70
2018-07-06T21:50:25.618Z,23.60
2018-07-06T21:52:54.199Z,23.60
2018-07-06T21:55:22.815Z,23.50
2018-07-06T21:57:51.164Z,23.50
2018-07-06T22:00:29.428Z,23.40
2018-07-06T22:02:57.769Z,23.30
2018-07-06T22:05:26.208Z,23.30
2018-07-06T22:07:54.663Z,23.30
2018-07-06T22:10:22.947Z,23.30
2018-07-06T22:12:51.192Z,23.40
2018-07-06T22:15:19.521Z,23.30
2018-07-06T22:17:47.823Z,23.40
2018-07-06T22:20:16.124Z,23.30
2018-07-06T22:22:44.455Z,23.20
2018-07-06T22:25:12.753Z,23.30
2018-07-06T22:27:41.019Z,23.20
2018-07-06T22:30:09.351Z,23.10
2018-07-06T22:32:37.622Z,23.10
2018-07-06T22:35:05.893Z,23.00
2018-07-06T22:40:02.137Z,23.00
2018-07-06T22:42:30.472Z,22.90
2018-07-06T22:44:58.758Z,22.90
2018-07-06T22:47:27.031Z,22.80
2018-07-06T22:49:55.310Z,22.80
2018-07-06T22:52:24.414Z,22.70
2018-07-06T22:54:52.710Z,22.60
2018-07-06T22:57:20.987Z,22.60
2018-07-06T22:59:49.222Z,22.60
2018-07-06T23:02:17.562Z,22.50
2018-07-06T23:04:45.844Z,22.40
2018-07-06T23:07:14.118Z,22.40
2018-07-06T23:09:42.616Z,22.30
2018-07-06T23:12:10.884Z,22.30
2018-07-06T23:14:39.134Z,22.30
2018-07-06T23:19:35.397Z,22.10
2018-07-06T23:22:03.687Z,22.10
2018-07-06T23:24:31.962Z,22.00
2018-07-06T23:27:00.294Z,22.00
2018-07-06T23:29:28.536Z,22.00
2018-07-06T23:31:56.806Z,21.90
2018-07-06T23:34:25.064Z,21.80
2018-07-06T23:36:53.357Z,21.70
2018-07-06T23:39:21.591Z,21.60
2018-07-06T23:41:49.846Z,21.60
2018-07-06T23:44:18.104Z,21.60
2018-07-06T23:46:46.376Z,21.50
2018-07-06T23:49:14.722Z,21.40
2018-07-06T23:51:42.969Z,21.50
2018-07-06T23:54:11.234Z,21.50
2018-07-06T23:56:39.495Z,21.30
2018-07-06T23:59:07.758Z,21.30
